createdAt,value
2019-04-01T00:01:59.079Z,100502.46
2019-04-01T00:04:32.140Z,100504.77
2019-04-01T00:07:05.107Z,100506.04
2019-04-01T00:09:38.723Z,100504.00
2019-04-01T00:12:12.933Z,100512.92
2019-04-01T00:14:46.959Z,100516.69
2019-04-01T00:17:21.062Z,100515.28
2019-04-01T00:19:54.653Z,100514.78
2019-04-01T00:22:29.147Z,100519.77
2019-04-01T00:25:02.457Z,100518.24
2019-04-01T00:27:36.682Z,100519.26
2019-04-01T00:30:09.151Z,100519.48
2019-04-01T00:32:43.415Z,100519.67
2019-04-01T00:35:16.979Z,100521.42
2019-04-01T00:37:50.464Z,100520.47
2019-04-01T00:40:24.612Z,100522.38
2019-04-01T00:43:21.914Z,100525.05
2019-04-01T00:45:56.829Z,100527.23
2019-04-01T00:48:31.153Z,100529.05
2019-04-01T00:51:04.712Z,100530.56
2019-04-01T00:53:38.021Z,100529.88
2019-04-01T00:56:11.714Z,100530.57
2019-04-01T00:58:45.805Z,100525.66
2019-04-01T01:01:19.510Z,100524.16
2019-04-01T01:03:53.235Z,100527.14
2019-04-01T01:06:27.451Z,100524.21
2019-04-01T01:09:01.670Z,100529.12
2019-04-01T01:11:35.168Z,100529.55
2019-04-01T01:14:09.714Z,100529.09
2019-04-01T01:16:43.423Z,100528.19
2019-04-01T01:19:16.677Z,100530.17
2019-04-01T01:21:50.899Z,100524.30
2019-04-01T01:24:23.975Z,100526.95
2019-04-01T01:26:58.189Z,100523.03
2019-04-01T01:29:32.047Z,100531.57
2019-04-01T01:32:06.106Z,100530.68
2019-04-01T01:34:39.419Z,100532.30
2019-04-01T01:37:13.614Z,100532.89
2019-04-01T01:39:46.949Z,100534.53
2019-04-01T01:42:20.819Z,100539.72
2019-04-01T01:44:54.115Z,100537.13
2019-04-01T01:47:27.745Z,100542.59
2019-04-01T01:50:01.448Z,100540.62
2019-04-01T01:52:34.638Z,100539.72
2019-04-01T01:55:07.910Z,100543.94
2019-04-01T01:57:42.039Z,100545.69
2019-04-01T02:00:16.316Z,100547.11
2019-04-01T02:02:50.500Z,100548.11
2019-04-01T02:05:24.308Z,100552.52
2019-04-01T02:07:58.428Z,100550.14
2019-04-01T02:10:31.821Z,100553.72
2019-04-01T02:13:05.808Z,100552.84
2019-04-01T02:15:39.593Z,100556.71
2019-04-01T02:18:13.894Z,100553.27
2019-04-01T02:20:47.641Z,100555.30
2019-04-01T02:23:20.429Z,100558.64
2019-04-01T02:25:53.634Z,100562.98
2019-04-01T02:28:27.235Z,100557.16
2019-04-01T02:31:01.400Z,100561.75
2019-04-01T02:33:34.572Z,100563.86
2019-04-01T02:36:08.964Z,100563.92
2019-04-01T02:38:43.121Z,100568.77
2019-04-01T02:41:17.170Z,100567.97
2019-04-01T02:43:50.746Z,100568.95
2019-04-01T02:46:24.371Z,100574.64
2019-04-01T02:48:58.129Z,100581.22
2019-04-01T02:51:31.872Z,100582.25
2019-04-01T02:54:05.565Z,100579.46
2019-04-01T02:56:39.184Z,100575.20
2019-04-01T02:59:13.280Z,100578.00
2019-04-01T03:01:46.984Z,100585.21
2019-04-01T03:04:20.893Z,100589.08
2019-04-01T03:06:55.155Z,100588.41
2019-04-01T03:09:28.723Z,100588.12
2019-04-01T03:12:02.659Z,100586.69
2019-04-01T03:14:36.317Z,100590.33
2019-04-01T03:17:10.111Z,100593.03
2019-04-01T03:19:43.947Z,100591.73
2019-04-01T03:22:17.589Z,100592.20
2019-04-01T03:24:51.806Z,100595.22
2019-04-01T03:27:25.895Z,100594.42
2019-04-01T03:29:59.654Z,100592.08
2019-04-01T03:32:33.781Z,100594.86
2019-04-01T03:35:07.409Z,100594.33
2019-04-01T03:37:41.526Z,100603.04
2019-04-01T03:40:14.838Z,100599.22
2019-04-01T03:42:48.647Z,100605.12
2019-04-01T03:45:22.457Z,100601.87
2019-04-01T03:47:56.681Z,100603.71
2019-04-01T03:50:30.869Z,100604.72
2019-04-01T03:53:04.575Z,100606.67
2019-04-01T03:55:37.452Z,100613.50
2019-04-01T03:58:11.640Z,100613.06
2019-04-01T04:00:45.178Z,100611.39
2019-04-01T04:03:18.871Z,100610.41
2019-04-01T04:05:52.548Z,100607.14
2019-04-01T04:08:26.796Z,100612.41
2019-04-01T04:11:00.889Z,100612.11
2019-04-01T04:13:34.500Z,100620.63
2019-04-01T04:16:08.953Z,100628.23
2019-04-01T04:18:42.215Z,100620.08
2019-04-01T04:21:16.064Z,100618.02
2019-04-01T04:23:49.920Z,100619.59
2019-04-01T04:26:24.029Z,100624.61
2019-04-01T04:28:58.144Z,100622.81
2019-04-01T04:31:31.361Z,100626.69
2019-04-01T04:34:04.713Z,100629.75
2019-04-01T04:36:38.473Z,100638.13
2019-04-01T04:39:12.165Z,100639.36
2019-04-01T04:41:46.400Z,100642.51
2019-04-01T04:44:20.232Z,100643.83
2019-04-01T04:46:54.430Z,100647.47
2019-04-01T04:49:28.618Z,100652.77
2019-04-01T04:52:04.619Z,100658.47
2019-04-01T04:54:38.406Z,100661.99
2019-04-01T04:57:12.189Z,100659.02
2019-04-01T04:59:46.405Z,100656.45
2019-04-01T05:02:20.598Z,100656.20
2019-04-01T05:04:54.561Z,100660.53
2019-04-01T05:07:31.281Z,100664.87
2019-04-01T05:10:03.606Z,100673.19
2019-04-01T05:12:39.127Z,100671.80
2019-04-01T05:15:12.802Z,100674.25
2019-04-01T05:17:47.019Z,100677.91
2019-04-01T05:20:20.767Z,100679.58
2019-04-01T05:22:56.539Z,100681.01
2019-04-01T05:25:32.007Z,100683.68
2019-04-01T05:28:06.543Z,100679.88
2019-04-01T05:30:42.547Z,100687.77
2019-04-01T05:33:20.349Z,100687.86
2019-04-01T05:35:53.719Z,100685.94
2019-04-01T05:38:27.170Z,100690.10
2019-04-01T05:41:01.742Z,100695.09
2019-04-01T05:43:35.598Z,100695.71
2019-04-01T05:46:08.941Z,100698.97
2019-04-01T05:48:43.086Z,100694.81
2019-04-01T05:51:15.842Z,100699.49
2019-04-01T05:53:50.162Z,100696.83
2019-04-01T05:56:24.360Z,100703.20
2019-04-01T05:58:58.496Z,100700.55
2019-04-01T06:01:50.732Z,100702.28
2019-04-01T06:04:24.969Z,100699.06
2019-04-01T06:06:58.377Z,100700.62
2019-04-01T06:09:32.053Z,100706.08
2019-04-01T06:12:05.856Z,100701.77
2019-04-01T06:14:39.507Z,100701.44
2019-04-01T06:17:12.740Z,100704.68
2019-04-01T06:19:46.152Z,100705.45
2019-04-01T06:22:20.593Z,100702.77
2019-04-01T06:24:54.898Z,100710.31
2019-04-01T06:27:28.515Z,100706.30
2019-04-01T06:30:03.333Z,100704.59
2019-04-01T06:32:36.955Z,100706.06
2019-04-01T06:35:11.309Z,100708.73
2019-04-01T06:37:45.434Z,100713.75
2019-04-01T06:40:19.778Z,100713.48
2019-04-01T06:42:54.016Z,100716.44
2019-04-01T06:45:28.010Z,100713.53
2019-04-01T06:48:01.702Z,100717.94
2019-04-01T06:50:35.445Z,100723.61
2019-04-01T06:53:09.545Z,100723.33
2019-04-01T06:55:43.512Z,100725.40
2019-04-01T06:58:17.137Z,100727.61
2019-04-01T07:00:51.348Z,100726.41
2019-04-01T07:03:25.844Z,100725.92
2019-04-01T07:05:59.192Z,100726.19
2019-04-01T07:08:33.040Z,100726.72
2019-04-01T07:11:07.268Z,100726.73
2019-04-01T07:13:41.160Z,100726.45
2019-04-01T07:16:16.206Z,100725.91
2019-04-01T07:18:49.665Z,100730.09
2019-04-01T07:21:23.397Z,100730.47
2019-04-01T07:23:56.842Z,100735.78
2019-04-01T07:26:30.228Z,100736.36
2019-04-01T07:29:03.968Z,100736.55
2019-04-01T07:31:37.249Z,100731.19
2019-04-01T07:34:09.942Z,100736.48
2019-04-01T07:36:43.219Z,100741.77
2019-04-01T07:39:17.613Z,100743.15
2019-04-01T07:41:50.544Z,100744.31
2019-04-01T07:44:24.201Z,100747.52
2019-04-01T07:46:57.324Z,100752.05
2019-04-01T07:49:29.353Z,100748.56
2019-04-01T07:52:01.676Z,100750.68
2019-04-01T07:54:34.630Z,100755.72
2019-04-01T07:57:06.978Z,100752.71
2019-04-01T07:59:40.254Z,100759.74
2019-04-01T08:02:14.114Z,100756.75
2019-04-01T08:04:47.445Z,100755.77
2019-04-01T08:07:19.805Z,100755.03
2019-04-01T08:09:54.482Z,100759.36
2019-04-01T08:12:28.076Z,100756.77
2019-04-01T08:15:02.367Z,100758.23
2019-04-01T08:17:35.538Z,100762.37
2019-04-01T08:20:08.503Z,100757.13
2019-04-01T08:22:43.286Z,100757.02
2019-04-01T08:25:15.068Z,100754.83
2019-04-01T08:27:47.896Z,100756.38
2019-04-01T08:30:21.398Z,100755.94
2019-04-01T08:32:54.824Z,100759.40
2019-04-01T08:35:28.248Z,100760.55
2019-04-01T08:38:01.599Z,100756.14
2019-04-01T08:40:35.137Z,100754.63
2019-04-01T08:43:07.148Z,100751.04
2019-04-01T08:45:40.317Z,100748.48
2019-04-01T08:48:13.769Z,100749.42
2019-04-01T08:50:47.252Z,100754.05
2019-04-01T08:53:20.893Z,100750.34
2019-04-01T08:56:00.512Z,100754.27
2019-04-01T08:58:28.223Z,100748.16
2019-04-01T09:01:00.586Z,100753.86
2019-04-01T09:03:33.397Z,100750.40
2019-04-01T09:06:07.415Z,100744.84
2019-04-01T09:08:43.532Z,100742.63
2019-04-01T09:11:17.269Z,100744.66
2019-04-01T09:13:51.578Z,100741.77
2019-04-01T09:16:25.766Z,100738.81
2019-04-01T09:18:59.524Z,100743.08
2019-04-01T09:21:33.901Z,100735.36
2019-04-01T09:24:07.800Z,100735.87
2019-04-01T09:26:41.964Z,100731.89
2019-04-01T09:29:16.163Z,100725.69
2019-04-01T09:31:49.733Z,100726.80
2019-04-01T09:34:23.339Z,100728.44
2019-04-01T09:36:57.594Z,100724.11
2019-04-01T09:39:31.504Z,100724.45
2019-04-01T09:42:05.524Z,100722.23
2019-04-01T09:44:39.114Z,100721.19
2019-04-01T09:47:13.188Z,100716.86
2019-04-01T09:49:47.315Z,100718.81
2019-04-01T09:52:20.651Z,100714.53
2019-04-01T09:54:53.939Z,100714.64
2019-04-01T09:57:27.706Z,100718.73
2019-04-01T10:00:00.925Z,100716.17
2019-04-01T10:02:35.053Z,100717.95
2019-04-01T10:05:08.042Z,100720.78
2019-04-01T10:07:42.200Z,100719.58
2019-04-01T10:10:16.509Z,100716.61
2019-04-01T10:12:50.300Z,100712.53
2019-04-01T10:15:25.422Z,100711.27
2019-04-01T10:17:59.036Z,100699.38
2019-04-01T10:20:33.079Z,100702.55
2019-04-01T10:23:07.598Z,100707.62
2019-04-01T10:25:41.866Z,100697.66
2019-04-01T10:28:15.827Z,100687.77
2019-04-01T10:30:48.840Z,100689.72
2019-04-01T10:33:22.740Z,100687.52
2019-04-01T10:35:56.869Z,100685.80
2019-04-01T10:38:29.303Z,100685.88
2019-04-01T10:41:02.072Z,100681.84
2019-04-01T10:43:35.702Z,100683.84
2019-04-01T10:46:12.197Z,100679.73
2019-04-01T10:48:45.267Z,100677.89
2019-04-01T10:51:18.558Z,100681.11
2019-04-01T10:53:52.317Z,100678.41
2019-04-01T10:56:25.240Z,100673.80
2019-04-01T10:58:58.539Z,100674.20
2019-04-01T11:01:32.278Z,100678.45
2019-04-01T11:04:06.089Z,100672.73
2019-04-01T11:06:40.237Z,100673.36
2019-04-01T11:09:13.668Z,100672.59
2019-04-01T11:11:47.488Z,100673.34
2019-04-01T11:14:22.163Z,100662.89
2019-04-01T11:16:57.077Z,100664.73
2019-04-01T11:19:30.689Z,100661.88
2019-04-01T11:22:04.382Z,100662.72
2019-04-01T11:24:38.220Z,100661.13
2019-04-01T11:27:12.402Z,100651.88
2019-04-01T11:29:46.106Z,100650.32
2019-04-01T11:32:19.477Z,100655.54
2019-04-01T11:34:55.977Z,100646.00
2019-04-01T11:37:28.982Z,100640.13
2019-04-01T11:40:03.076Z,100635.09
2019-04-01T11:42:40.327Z,100629.31
2019-04-01T11:45:13.229Z,100633.97
2019-04-01T11:47:47.208Z,100630.30
2019-04-01T11:50:20.442Z,100625.19
2019-04-01T11:52:53.294Z,100622.72
2019-04-01T11:55:25.703Z,100611.52
2019-04-01T11:57:57.971Z,100615.70
2019-04-01T12:00:31.380Z,100610.72
2019-04-01T12:03:04.545Z,100606.48
2019-04-01T12:05:38.771Z,100603.81
2019-04-01T12:08:11.162Z,100596.39
2019-04-01T12:10:44.729Z,100587.73
2019-04-01T12:13:17.758Z,100581.84
2019-04-01T12:15:51.258Z,100571.91
2019-04-01T12:18:24.615Z,100566.77
2019-04-01T12:20:58.481Z,100567.83
2019-04-01T12:23:31.389Z,100566.65
2019-04-01T12:26:15.170Z,100563.78
2019-04-01T12:28:38.580Z,100556.14
2019-04-01T12:31:13.032Z,100556.91
2019-04-01T12:33:46.851Z,100543.66
2019-04-01T12:36:19.665Z,100547.20
2019-04-01T12:38:53.845Z,100538.63
2019-04-01T12:41:27.024Z,100537.89
2019-04-01T12:44:00.327Z,100532.21
2019-04-01T12:46:34.445Z,100529.08
2019-04-01T12:49:08.151Z,100520.97
2019-04-01T12:51:40.920Z,100520.05
2019-04-01T12:54:15.212Z,100517.09
2019-04-01T12:56:49.342Z,100504.94
2019-04-01T12:59:22.164Z,100507.22
2019-04-01T13:01:55.085Z,100500.02
2019-04-01T13:04:28.782Z,100502.80
2019-04-01T13:07:05.084Z,100497.25
2019-04-01T13:09:38.496Z,100488.84
2019-04-01T13:12:12.486Z,100485.94
2019-04-01T13:14:46.056Z,100491.59
2019-04-01T13:17:20.994Z,100476.81
2019-04-01T13:19:55.007Z,100474.04
2019-04-01T13:22:28.777Z,100479.84
2019-04-01T13:25:05.632Z,100467.03
2019-04-01T13:27:38.489Z,100468.37
2019-04-01T13:30:12.353Z,100470.41
2019-04-01T13:32:46.998Z,100470.33
2019-04-01T13:35:21.094Z,100459.88
2019-04-01T13:37:55.206Z,100458.92
2019-04-01T13:40:28.774Z,100450.97
2019-04-01T13:43:04.605Z,100451.81
2019-04-01T13:45:38.263Z,100451.23
2019-04-01T13:48:12.032Z,100450.44
2019-04-01T13:50:45.662Z,100445.91
2019-04-01T13:53:19.424Z,100446.05
2019-04-01T13:55:52.638Z,100445.68
2019-04-01T13:58:26.249Z,100440.20
2019-04-01T14:00:59.752Z,100433.84
2019-04-01T14:03:33.024Z,100435.53
2019-04-01T14:06:06.384Z,100430.02
2019-04-01T14:08:40.146Z,100423.55
2019-04-01T14:11:13.793Z,100425.30
2019-04-01T14:13:48.061Z,100422.06
2019-04-01T14:16:22.197Z,100418.59
2019-04-01T14:18:55.796Z,100408.25
2019-04-01T14:21:29.996Z,100410.63
2019-04-01T14:24:03.878Z,100398.78
2019-04-01T14:26:37.910Z,100402.66
2019-04-01T14:29:11.919Z,100395.98
2019-04-01T14:31:45.153Z,100394.27
2019-04-01T14:34:23.328Z,100388.83
2019-04-01T14:36:53.541Z,100392.78
2019-04-01T14:39:26.777Z,100385.55
2019-04-01T14:42:00.366Z,100381.17
2019-04-01T14:44:36.728Z,100379.72
2019-04-01T14:47:11.133Z,100378.70
2019-04-01T14:49:44.896Z,100372.27
2019-04-01T14:52:31.687Z,100369.23
2019-04-01T14:54:55.192Z,100369.83
2019-04-01T14:57:30.246Z,100370.80
2019-04-01T15:00:04.370Z,100365.12
2019-04-01T15:02:36.930Z,100368.82
2019-04-01T15:05:08.902Z,100371.94
2019-04-01T15:07:42.222Z,100375.52
2019-04-01T15:10:15.219Z,100365.42
2019-04-01T15:12:48.408Z,100363.47
2019-04-01T15:15:21.328Z,100367.06
2019-04-01T15:17:53.756Z,100369.84
2019-04-01T15:20:26.434Z,100368.06
2019-04-01T15:22:58.495Z,100371.08
2019-04-01T15:25:31.778Z,100368.88
2019-04-01T15:28:05.887Z,100377.34
2019-04-01T15:30:38.313Z,100370.66
2019-04-01T15:33:11.307Z,100370.16
2019-04-01T15:35:45.075Z,100370.07
2019-04-01T15:38:18.662Z,100372.66
2019-04-01T15:40:51.143Z,100376.50
2019-04-01T15:43:23.131Z,100377.14
2019-04-01T15:45:55.855Z,100371.45
2019-04-01T15:48:29.166Z,100375.60
2019-04-01T15:51:01.579Z,100374.26
2019-04-01T15:53:34.855Z,100370.54
2019-04-01T15:56:07.846Z,100370.02
2019-04-01T15:58:40.117Z,100370.11
2019-04-01T16:01:12.428Z,100368.25
2019-04-01T16:03:45.564Z,100370.95
2019-04-01T16:06:17.576Z,100367.85
2019-04-01T16:08:50.310Z,100363.38
2019-04-01T16:11:22.743Z,100364.30
2019-04-01T16:13:55.752Z,100359.64
2019-04-01T16:16:29.078Z,100360.27
2019-04-01T16:19:02.288Z,100352.20
2019-04-01T16:21:35.540Z,100352.21
2019-04-01T16:24:10.934Z,100352.40
2019-04-01T16:26:43.274Z,100353.95
2019-04-01T16:29:16.793Z,100353.84
2019-04-01T16:31:49.592Z,100350.27
2019-04-01T16:34:22.599Z,100351.58
2019-04-01T16:36:55.076Z,100350.91
2019-04-01T16:39:27.507Z,100358.06
2019-04-01T16:42:01.671Z,100357.52
2019-04-01T16:44:35.426Z,100358.27
2019-04-01T16:47:10.184Z,100361.25
2019-04-01T16:49:44.576Z,100366.66
2019-04-01T16:52:18.124Z,100366.68
2019-04-01T16:55:04.478Z,100365.64
2019-04-01T16:57:38.186Z,100372.05
2019-04-01T17:00:14.727Z,100373.75
2019-04-01T17:02:50.015Z,100381.66
2019-04-01T17:05:30.175Z,100382.59
2019-04-01T17:08:03.362Z,100385.18
2019-04-01T17:10:38.281Z,100386.00
2019-04-01T17:13:13.489Z,100386.78
2019-04-01T17:15:48.011Z,100379.99
2019-04-01T17:18:23.148Z,100384.83
2019-04-01T17:20:57.356Z,100387.74
2019-04-01T17:23:31.029Z,100390.15
2019-04-01T17:26:04.046Z,100392.09
2019-04-01T17:28:38.185Z,100392.52
2019-04-01T17:31:12.321Z,100399.29
2019-04-01T17:33:45.484Z,100401.25
2019-04-01T17:36:19.202Z,100405.23
2019-04-01T17:38:53.430Z,100405.31
2019-04-01T17:41:26.755Z,100411.29
2019-04-01T17:44:00.909Z,100406.84
2019-04-01T17:46:34.613Z,100407.86
2019-04-01T17:49:08.535Z,100415.74
2019-04-01T17:51:41.837Z,100419.95
2019-04-01T17:54:15.185Z,100429.72
2019-04-01T17:56:49.529Z,100434.05
2019-04-01T17:59:23.755Z,100432.66
2019-04-01T18:01:57.151Z,100438.78
2019-04-01T18:04:31.062Z,100438.68
2019-04-01T18:07:05.383Z,100439.97
2019-04-01T18:09:38.878Z,100441.05
2019-04-01T18:12:10.937Z,100445.02
2019-04-01T18:14:42.945Z,100444.34
2019-04-01T18:17:18.445Z,100445.72
2019-04-01T18:19:49.495Z,100457.92
2019-04-01T18:22:21.903Z,100454.55
2019-04-01T18:24:55.675Z,100456.55
2019-04-01T18:27:27.638Z,100455.92
2019-04-01T18:30:00.478Z,100459.11
2019-04-01T18:32:34.251Z,100460.70
2019-04-01T18:35:06.856Z,100466.63
2019-04-01T18:37:39.323Z,100471.14
2019-04-01T18:40:12.552Z,100464.02
2019-04-01T18:42:45.709Z,100468.48
2019-04-01T18:45:18.296Z,100472.74
2019-04-01T18:47:51.136Z,100474.06
2019-04-01T18:50:24.147Z,100470.38
2019-04-01T18:52:57.922Z,100476.24
2019-04-01T18:55:32.064Z,100474.06
2019-04-01T18:58:05.691Z,100475.62
2019-04-01T19:00:39.779Z,100474.45
2019-04-01T19:03:13.311Z,100472.72
2019-04-01T19:05:47.046Z,100474.28
2019-04-01T19:08:20.182Z,100475.52
2019-04-01T19:11:01.821Z,100475.72
2019-04-01T19:13:26.208Z,100477.33
2019-04-01T19:16:00.838Z,100483.52
2019-04-01T19:18:34.272Z,100488.29
2019-04-01T19:21:08.217Z,100482.66
2019-04-01T19:23:42.068Z,100482.06
2019-04-01T19:26:14.483Z,100478.55
2019-04-01T19:28:47.229Z,100478.33
2019-04-01T19:31:23.112Z,100476.50
2019-04-01T19:33:55.613Z,100479.64
2019-04-01T19:36:27.683Z,100487.77
2019-04-01T19:39:00.684Z,100482.27
2019-04-01T19:41:33.568Z,100485.25
2019-04-01T19:44:06.731Z,100485.42
2019-04-01T19:46:39.654Z,100483.75
2019-04-01T19:49:12.493Z,100487.36
2019-04-01T19:51:45.424Z,100485.02
2019-04-01T19:54:27.995Z,100486.12
2019-04-01T19:56:52.415Z,100485.22
2019-04-01T19:59:26.064Z,100490.60
2019-04-01T20:01:59.775Z,100488.34
2019-04-01T20:04:32.705Z,100490.06
2019-04-01T20:07:05.061Z,100493.00
2019-04-01T20:09:37.364Z,100490.83
2019-04-01T20:12:11.216Z,100489.91
2019-04-01T20:14:45.720Z,100493.77
2019-04-01T20:17:18.620Z,100490.59
2019-04-01T20:19:51.332Z,100494.58
2019-04-01T20:22:23.791Z,100494.90
2019-04-01T20:24:57.139Z,100492.42
2019-04-01T20:27:29.530Z,100494.76
2019-04-01T20:30:02.555Z,100494.72
2019-04-01T20:32:35.894Z,100491.86
2019-04-01T20:35:22.264Z,100494.62
2019-04-01T20:37:44.043Z,100495.77
2019-04-01T20:40:16.719Z,100494.13
2019-04-01T20:42:50.938Z,100496.52
2019-04-01T20:45:23.051Z,100497.16
2019-04-01T20:47:55.371Z,100494.53
2019-04-01T20:50:29.035Z,100492.80
2019-04-01T20:53:01.567Z,100487.56
2019-04-01T20:55:33.927Z,100489.55
2019-04-01T20:58:06.285Z,100487.29
2019-04-01T21:00:38.738Z,100487.13
2019-04-01T21:03:11.493Z,100484.41
2019-04-01T21:05:44.857Z,100489.83
2019-04-01T21:08:17.754Z,100487.58
2019-04-01T21:10:51.302Z,100486.34
2019-04-01T21:13:23.636Z,100488.66
2019-04-01T21:15:56.941Z,100482.83
2019-04-01T21:18:29.872Z,100486.66
2019-04-01T21:21:03.344Z,100487.61
2019-04-01T21:23:36.108Z,100482.87
2019-04-01T21:26:08.512Z,100478.33
2019-04-01T21:28:41.406Z,100477.25
2019-04-01T21:31:15.067Z,100473.89
2019-04-01T21:33:49.353Z,100474.54
2019-04-01T21:36:21.687Z,100471.05
2019-04-01T21:38:55.096Z,100468.63
2019-04-01T21:41:28.886Z,100468.67
2019-04-01T21:44:02.667Z,100469.36
2019-04-01T21:46:36.441Z,100471.12
2019-04-01T21:49:10.457Z,100465.72
2019-04-01T21:51:43.310Z,100466.77
2019-04-01T21:54:17.117Z,100466.98
2019-04-01T21:56:52.018Z,100460.91
2019-04-01T21:59:26.350Z,100460.47
2019-04-01T22:02:00.000Z,100462.16
2019-04-01T22:04:34.183Z,100461.06
2019-04-01T22:07:07.405Z,100459.90
2019-04-01T22:09:41.185Z,100458.14
2019-04-01T22:12:15.302Z,100459.54
2019-04-01T22:14:49.313Z,100457.34
2019-04-01T22:17:24.141Z,100456.54
2019-04-01T22:19:57.846Z,100456.56
2019-04-01T22:22:30.716Z,100449.67
2019-04-01T22:25:04.499Z,100447.66
2019-04-01T22:27:38.655Z,100447.70
2019-04-01T22:30:13.283Z,100444.91
2019-04-01T22:32:46.958Z,100443.02
2019-04-01T22:35:20.145Z,100444.81
2019-04-01T22:37:53.381Z,100441.03
2019-04-01T22:40:27.524Z,100438.01
2019-04-01T22:43:01.733Z,100433.35
2019-04-01T22:45:35.893Z,100428.91
2019-04-01T22:48:08.675Z,100426.34
2019-04-01T22:50:42.800Z,100425.42
2019-04-01T22:53:16.509Z,100426.13
2019-04-01T22:55:52.343Z,100422.86
2019-04-01T22:58:26.478Z,100422.31
2019-04-01T23:00:59.995Z,100422.22
2019-04-01T23:03:33.274Z,100420.47
2019-04-01T23:06:06.982Z,100419.49
2019-04-01T23:08:40.824Z,100415.11
2019-04-01T23:11:15.103Z,100417.53
2019-04-01T23:13:49.008Z,100413.55
2019-04-01T23:16:22.302Z,100405.77
2019-04-01T23:18:56.441Z,100406.61
2019-04-01T23:21:31.047Z,100402.94
2019-04-01T23:24:04.826Z,100399.87
2019-04-01T23:26:38.681Z,100395.98
2019-04-01T23:29:12.566Z,100394.33
2019-04-01T23:31:46.244Z,100399.03
2019-04-01T23:34:21.516Z,100398.08
2019-04-01T23:36:55.243Z,100392.57
2019-04-01T23:39:29.227Z,100389.34
2019-04-01T23:42:02.901Z,100391.26
2019-04-01T23:44:36.145Z,100384.75
2019-04-01T23:47:10.364Z,100383.16
2019-04-01T23:49:44.327Z,100383.33
2019-04-01T23:52:18.569Z,100382.94
2019-04-01T23:54:52.658Z,100376.36
2019-04-01T23:57:26.800Z,100375.34
